createdAt,value
2023-08-15T00:03:08.551Z,100588.63
2023-08-15T00:08:11.436Z,100589.55
2023-08-15T00:13:14.201Z,100588.98
2023-08-15T00:18:16.985Z,100584.86
2023-08-15T00:23:21.474Z,100586.60
2023-08-15T00:28:24.244Z,100587.54
2023-08-15T00:33:27.094Z,100591.33
2023-08-15T00:38:29.862Z,100591.13
2023-08-15T00:43:32.664Z,100592.58
2023-08-15T00:48:37.243Z,100589.23
2023-08-15T00:53:40.755Z,100589.11
2023-08-15T00:58:43.611Z,100583.15
2023-08-15T01:03:48.049Z,100582.58
2023-08-15T01:08:50.973Z,100577.50
2023-08-15T01:14:06.206Z,100577.77
2023-08-15T01:19:14.574Z,100586.26
2023-08-15T01:24:17.869Z,100581.16
2023-08-15T01:29:20.630Z,100577.39
2023-08-15T01:34:34.096Z,100578.72
2023-08-15T01:39:39.624Z,100578.70
2023-08-15T01:44:42.375Z,100577.59
2023-08-15T01:49:45.214Z,100581.56
2023-08-15T01:54:48.343Z,100579.65
2023-08-15T01:59:51.132Z,100566.77
2023-08-15T02:04:53.913Z,100568.02
2023-08-15T02:09:56.684Z,100569.23
2023-08-15T02:14:59.455Z,100565.02
2023-08-15T02:20:02.441Z,100567.08
2023-08-15T02:25:05.942Z,100573.20
2023-08-15T02:30:09.654Z,100570.55
2023-08-15T02:35:14.396Z,100571.04
2023-08-15T02:40:17.321Z,100577.41
2023-08-15T02:45:20.127Z,100576.87
2023-08-15T02:50:23.213Z,100584.16
2023-08-15T02:55:26.150Z,100583.20
2023-08-15T03:00:28.883Z,100578.92
2023-08-15T03:05:31.620Z,100576.48
2023-08-15T03:10:36.520Z,100575.02
2023-08-15T03:15:39.822Z,100576.15
2023-08-15T03:20:42.684Z,100577.51
2023-08-15T03:25:45.411Z,100580.25
2023-08-15T03:30:48.310Z,100579.70
2023-08-15T03:35:52.656Z,100582.73
2023-08-15T03:41:06.544Z,100582.64
2023-08-15T03:46:09.458Z,100580.97
2023-08-15T03:51:15.605Z,100579.13
2023-08-15T03:56:25.939Z,100583.83
2023-08-15T04:01:28.849Z,100594.45
2023-08-15T04:06:31.667Z,100596.13
2023-08-15T04:11:34.424Z,100585.55
2023-08-15T04:16:37.388Z,100583.81
2023-08-15T04:21:40.261Z,100583.55
2023-08-15T04:26:43.010Z,100583.09
2023-08-15T04:31:45.887Z,100581.91
2023-08-15T04:36:49.978Z,100578.79
2023-08-15T04:41:52.851Z,100582.10
2023-08-15T04:46:55.999Z,100585.04
2023-08-15T04:51:58.778Z,100589.62
2023-08-15T04:57:01.565Z,100590.91
2023-08-15T05:02:04.619Z,100588.96
2023-08-15T05:07:07.693Z,100581.52
2023-08-15T05:12:10.436Z,100582.36
2023-08-15T05:17:13.368Z,100579.35
2023-08-15T05:22:16.506Z,100585.69
2023-08-15T05:27:19.800Z,100591.86
2023-08-15T05:32:22.973Z,100591.84
2023-08-15T05:37:25.952Z,100592.55
2023-08-15T05:42:28.732Z,100596.45
2023-08-15T05:47:31.688Z,100599.36
2023-08-15T05:52:35.081Z,100603.14
2023-08-15T05:57:37.853Z,100613.66
2023-08-15T06:02:41.109Z,100616.95
2023-08-15T06:07:44.785Z,100617.84
2023-08-15T06:12:47.752Z,100620.60
2023-08-15T06:17:50.549Z,100616.66
2023-08-15T06:22:53.465Z,100607.95
2023-08-15T06:27:56.216Z,100600.33
2023-08-15T06:32:59.620Z,100594.11
2023-08-15T06:38:02.454Z,100594.77
2023-08-15T06:43:05.224Z,100603.24
2023-08-15T06:48:08.069Z,100607.65
2023-08-15T06:53:10.849Z,100600.93
2023-08-15T06:58:13.596Z,100596.78
2023-08-15T07:03:17.556Z,100598.42
2023-08-15T07:08:20.369Z,100602.36
2023-08-15T07:13:23.304Z,100600.78
2023-08-15T07:18:26.231Z,100604.66
2023-08-15T07:23:29.040Z,100611.94
2023-08-15T07:28:31.749Z,100608.63
2023-08-15T07:33:34.609Z,100602.67
2023-08-15T07:38:37.411Z,100594.55
2023-08-15T07:43:40.176Z,100592.33
2023-08-15T07:48:44.142Z,100586.71
2023-08-15T07:53:47.495Z,100584.27
2023-08-15T07:58:50.261Z,100576.45
2023-08-15T08:03:53.304Z,100575.09
2023-08-15T08:08:56.143Z,100574.52
2023-08-15T08:13:59.414Z,100580.98
2023-08-15T08:19:02.844Z,100576.17
2023-08-15T08:24:06.760Z,100576.76
2023-08-15T08:29:12.642Z,100569.41
2023-08-15T08:34:17.478Z,100568.61
2023-08-15T08:39:31.613Z,100563.15
2023-08-15T08:44:36.900Z,100558.41
2023-08-15T08:49:44.934Z,100556.88
2023-08-15T08:54:57.096Z,100558.20
2023-08-15T09:00:10.901Z,100551.64
2023-08-15T09:05:14.631Z,100554.71
2023-08-15T09:10:17.800Z,100552.92
2023-08-15T09:15:20.609Z,100550.52
2023-08-15T09:20:23.438Z,100555.02
2023-08-15T09:25:28.591Z,100552.79
2023-08-15T09:30:32.207Z,100548.85
2023-08-15T09:35:37.488Z,100543.68
2023-08-15T09:40:45.161Z,100539.98
2023-08-15T09:45:48.198Z,100538.91
2023-08-15T09:50:51.915Z,100538.36
2023-08-15T09:55:55.071Z,100535.21
2023-08-15T10:00:59.654Z,100534.98
2023-08-15T10:06:04.257Z,100528.55
2023-08-15T10:11:10.452Z,100525.08
2023-08-15T10:16:15.214Z,100525.83
2023-08-15T10:21:19.417Z,100534.69
2023-08-15T10:26:22.403Z,100533.18
2023-08-15T10:31:41.211Z,100524.58
2023-08-15T10:36:46.573Z,100515.71
2023-08-15T10:41:50.350Z,100517.69
2023-08-15T10:46:57.604Z,100523.20
2023-08-15T10:52:01.439Z,100525.05
2023-08-15T10:57:10.996Z,100524.83
2023-08-15T11:02:16.342Z,100516.48
2023-08-15T11:07:27.319Z,100516.36
2023-08-15T11:12:33.165Z,100516.29
2023-08-15T11:17:37.513Z,100512.51
2023-08-15T11:22:41.751Z,100518.77
2023-08-15T11:27:53.024Z,100513.26
2023-08-15T11:33:01.809Z,100509.02
2023-08-15T11:38:11.428Z,100502.83
2023-08-15T11:43:15.516Z,100507.83
2023-08-15T11:48:19.441Z,100507.57
2023-08-15T11:53:27.291Z,100497.63
2023-08-15T11:58:33.021Z,100496.58
2023-08-15T12:03:40.273Z,100491.69
2023-08-15T12:08:47.293Z,100492.81
2023-08-15T12:13:50.624Z,100490.03
2023-08-15T12:18:53.556Z,100489.25
2023-08-15T12:23:57.453Z,100478.54
2023-08-15T12:29:01.407Z,100483.98
2023-08-15T12:34:06.419Z,100477.91
2023-08-15T12:39:10.674Z,100474.38
2023-08-15T12:44:13.990Z,100473.00
2023-08-15T12:49:18.125Z,100468.69
2023-08-15T12:54:21.716Z,100473.44
2023-08-15T12:59:35.465Z,100469.43
2023-08-15T13:04:38.998Z,100470.90
2023-08-15T13:09:54.877Z,100475.14
2023-08-15T13:14:57.958Z,100474.04
2023-08-15T13:20:04.144Z,100473.69
2023-08-15T13:25:08.940Z,100458.63
2023-08-15T13:30:14.093Z,100460.21
2023-08-15T13:35:21.444Z,100458.75
2023-08-15T13:40:24.932Z,100463.20
2023-08-15T13:45:29.324Z,100460.67
2023-08-15T13:50:32.196Z,100458.23
2023-08-15T13:55:35.617Z,100457.69
2023-08-15T14:00:40.269Z,100457.48
2023-08-15T14:05:43.210Z,100447.68
2023-08-15T14:10:46.336Z,100443.69
2023-08-15T14:15:50.976Z,100444.08
2023-08-15T14:20:53.835Z,100436.73
2023-08-15T14:25:58.290Z,100437.80
2023-08-15T14:31:06.882Z,100446.77
2023-08-15T14:36:10.965Z,100444.51
2023-08-15T14:41:13.838Z,100433.63
2023-08-15T14:46:18.873Z,100426.23
2023-08-15T14:51:22.469Z,100425.02
2023-08-15T14:56:26.710Z,100425.42
2023-08-15T15:01:31.896Z,100421.00
2023-08-15T15:06:36.722Z,100418.66
2023-08-15T15:11:40.286Z,100424.80
2023-08-15T15:16:44.816Z,100429.59
2023-08-15T15:21:53.759Z,100427.14
2023-08-15T15:26:59.647Z,100425.36
2023-08-15T15:32:06.298Z,100422.17
2023-08-15T15:37:13.322Z,100420.17
2023-08-15T15:42:16.529Z,100419.44
2023-08-15T15:47:20.770Z,100420.15
2023-08-15T15:52:24.397Z,100421.81
2023-08-15T15:57:28.188Z,100423.13
2023-08-15T16:02:31.172Z,100426.48
2023-08-15T16:07:34.071Z,100426.13
2023-08-15T16:12:36.888Z,100424.27
2023-08-15T16:17:39.896Z,100419.48
2023-08-15T16:22:43.643Z,100418.88
2023-08-15T16:27:46.433Z,100415.06
2023-08-15T16:32:49.672Z,100422.36
2023-08-15T16:37:52.833Z,100423.36
2023-08-15T16:43:11.453Z,100426.63
2023-08-15T16:48:15.389Z,100422.38
2023-08-15T16:53:18.878Z,100421.77
2023-08-15T16:58:24.783Z,100422.93
2023-08-15T17:03:28.505Z,100428.09
2023-08-15T17:08:32.430Z,100429.31
2023-08-15T17:13:35.442Z,100431.55
2023-08-15T17:18:38.472Z,100430.35
2023-08-15T17:23:41.212Z,100435.70
2023-08-15T17:28:44.492Z,100432.85
2023-08-15T17:33:47.336Z,100439.16
2023-08-15T17:38:50.084Z,100447.64
2023-08-15T17:43:55.265Z,100449.25
2023-08-15T17:48:58.081Z,100449.39
2023-08-15T17:54:00.847Z,100449.14
2023-08-15T17:59:04.243Z,100453.11
2023-08-15T18:04:07.165Z,100455.96
2023-08-15T18:09:10.767Z,100463.96
2023-08-15T18:14:14.739Z,100468.70
2023-08-15T18:19:21.267Z,100473.25
2023-08-15T18:24:24.206Z,100481.16
2023-08-15T18:29:28.054Z,100491.73
2023-08-15T18:34:30.856Z,100501.67
2023-08-15T18:39:33.796Z,100507.30
2023-08-15T18:44:36.710Z,100503.91
2023-08-15T18:49:39.748Z,100504.95
2023-08-15T18:54:42.832Z,100506.59
2023-08-15T18:59:45.713Z,100512.86
2023-08-15T19:04:48.701Z,100514.14
2023-08-15T19:09:51.574Z,100516.31
2023-08-15T19:14:57.012Z,100524.20
2023-08-15T19:20:00.047Z,100532.47
2023-08-15T19:25:03.321Z,100530.33
2023-08-15T19:30:07.331Z,100524.63
2023-08-15T19:35:10.263Z,100522.58
2023-08-15T19:40:13.347Z,100515.89
2023-08-15T19:45:16.306Z,100516.60
2023-08-15T19:50:19.191Z,100514.16
2023-08-15T19:55:22.134Z,100517.48
2023-08-15T20:00:25.542Z,100519.67
2023-08-15T20:05:28.457Z,100517.05
2023-08-15T20:10:35.669Z,100517.81
2023-08-15T20:15:40.094Z,100522.61
2023-08-15T20:20:43.143Z,100524.73
2023-08-15T20:25:46.739Z,100530.16
2023-08-15T20:30:49.960Z,100523.81
2023-08-15T20:35:54.050Z,100527.55
2023-08-15T20:40:59.204Z,100526.60
2023-08-15T20:46:02.197Z,100529.18
2023-08-15T20:51:05.771Z,100526.67
2023-08-15T20:56:08.762Z,100527.33
2023-08-15T21:01:14.597Z,100524.27
2023-08-15T21:06:17.491Z,100530.73
2023-08-15T21:11:21.037Z,100528.44
2023-08-15T21:16:30.951Z,100532.88
2023-08-15T21:21:44.879Z,100533.58
2023-08-15T21:26:50.863Z,100539.42
2023-08-15T21:31:54.659Z,100535.15
2023-08-15T21:36:58.732Z,100536.13
2023-08-15T21:42:15.385Z,100527.75
2023-08-15T21:47:21.487Z,100530.34
2023-08-15T21:52:25.049Z,100531.16
2023-08-15T21:57:28.476Z,100532.52
2023-08-15T22:02:32.020Z,100536.18
2023-08-15T22:07:35.393Z,100536.08
2023-08-15T22:12:38.222Z,100536.39
2023-08-15T22:17:46.159Z,100535.90
2023-08-15T22:22:50.644Z,100539.78
2023-08-15T22:27:53.409Z,100531.71
2023-08-15T22:32:56.170Z,100532.77
2023-08-15T22:37:58.975Z,100536.15
2023-08-15T22:43:01.960Z,100538.25
2023-08-15T22:48:05.075Z,100540.98
2023-08-15T22:53:07.900Z,100542.16
2023-08-15T22:58:14.866Z,100544.65
2023-08-15T23:03:17.689Z,100540.13
2023-08-15T23:08:20.497Z,100539.61
2023-08-15T23:13:23.472Z,100539.53
2023-08-15T23:18:26.591Z,100539.86
2023-08-15T23:23:29.668Z,100538.04
2023-08-15T23:28:32.433Z,100535.52
2023-08-15T23:33:35.252Z,100538.40
2023-08-15T23:38:38.151Z,100542.96
2023-08-15T23:43:41.340Z,100544.98
2023-08-15T23:48:44.119Z,100543.71
2023-08-15T23:53:48.761Z,100543.44
2023-08-15T23:58:52.126Z,100539.13
